Time;durP1;ratioP1;P1;durP2;ratioP2;P2;SDS_P1;SDS_P2;PMS_P1;PMS_P2;Temp;Humidity;BMP_temperature;BMP_pressure;BME280_temperature;BME280_humidity;BME280_pressure;Samples;Min_cycle;Max_cycle;Signal;HPM_P1;HPM_P2
2021/01/08 00:02:20;;;;;;;5.60;3.75;;;;;;;;;;4898285;29;20399;-23
2021/01/08 00:04:45;;;;;;;7.03;4.43;;;;;;;;;;4898316;29;20111;-24
2021/01/08 00:07:11;;;;;;;6.97;3.85;;;;;;;;;;4898011;29;20060;-25
2021/01/08 00:09:37;;;;;;;7.88;4.30;;;;;;;;;;4897933;29;20036;-24
2021/01/08 00:12:02;;;;;;;7.78;4.22;;;;;;;;;;4898198;29;20025;-24
2021/01/08 00:14:27;;;;;;;8.18;4.85;;;;;;;;;;4897919;29;20073;-24
2021/01/08 00:16:53;;;;;;;7.38;3.92;;;;;;;;;;4881069;29;20054;-25
2021/01/08 00:19:18;;;;;;;8.73;4.00;;;;;;;;;;4897835;29;20025;-24
2021/01/08 00:21:43;;;;;;;6.65;4.13;;;;;;;;;;4897721;29;20056;-25
2021/01/08 00:24:12;;;;;;;6.53;3.63;;;;;;;;;;4897630;29;20200;-24
2021/01/08 00:26:38;;;;;;;8.73;4.28;;;;;;;;;;4897698;29;20017;-25
2021/01/08 00:29:05;;;;;;;7.28;4.35;;;;;;;;;;4897468;29;20127;-25
2021/01/08 00:31:36;;;;;;;7.20;4.22;;;;;;;;;;4897667;29;20043;-24
2021/01/08 00:34:01;;;;;;;9.63;4.38;;;;;;;;;;4897500;29;20149;-24
2021/01/08 00:36:27;;;;;;;7.15;4.32;;;;;;;;;;4897546;29;20115;-24
2021/01/08 00:38:52;;;;;;;8.73;4.07;;;;;;;;;;4897693;29;20049;-24
2021/01/08 00:41:26;;;;;;;6.32;3.90;;;;;;;;;;4880773;29;20608;-25
2021/01/08 00:43:51;;;;;;;7.07;4.07;;;;;;;;;;4880302;29;20080;-25
2021/01/08 00:46:16;;;;;;;9.23;4.22;;;;;;;;;;4897434;29;20060;-25
2021/01/08 00:48:42;;;;;;;6.97;4.25;;;;;;;;;;4896228;29;20036;-25
2021/01/08 00:51:07;;;;;;;6.80;4.57;;;;;;;;;;4895975;29;20087;-24
2021/01/08 00:53:33;;;;;;;8.25;4.72;;;;;;;;;;4897518;29;20033;-24
2021/01/08 00:55:59;;;;;;;7.70;4.53;;;;;;;;;;4897244;29;20072;-25
2021/01/08 00:58:26;;;;;;;9.95;5.15;;;;;;;;;;4880393;29;20064;-24
2021/01/08 01:00:51;;;;;;;8.50;4.07;;;;;;;;;;4895701;29;20040;-24
2021/01/08 01:03:17;;;;;;;7.97;4.03;;;;;;;;;;4897189;29;20044;-25
2021/01/08 01:05:42;;;;;;;8.18;3.78;;;;;;;;;;4897224;29;20028;-25
2021/01/08 01:08:07;;;;;;;12.75;6.25;;;;;;;;;;4897078;29;20408;-24
2021/01/08 01:10:33;;;;;;;8.75;4.93;;;;;;;;;;4897122;29;20064;-24
2021/01/08 01:12:58;;;;;;;10.57;4.55;;;;;;;;;;4897060;29;20037;-24
2021/01/08 01:15:24;;;;;;;7.38;4.28;;;;;;;;;;4897076;29;20108;-24
2021/01/08 01:17:49;;;;;;;6.90;4.05;;;;;;;;;;4897071;29;20032;-25
2021/01/08 01:20:14;;;;;;;9.13;4.90;;;;;;;;;;4897348;29;20399;-24
2021/01/08 01:22:40;;;;;;;9.18;4.10;;;;;;;;;;4880232;29;20408;-24
2021/01/08 01:25:06;;;;;;;7.40;4.57;;;;;;;;;;4896870;29;20025;-25
2021/01/08 01:27:31;;;;;;;7.28;3.65;;;;;;;;;;4896855;29;20037;-24
2021/01/08 01:29:56;;;;;;;10.38;4.55;;;;;;;;;;4896948;29;20041;-24
2021/01/08 01:32:22;;;;;;;10.15;4.75;;;;;;;;;;4880073;29;20040;-24
2021/01/08 01:34:47;;;;;;;10.57;4.75;;;;;;;;;;4897123;29;20021;-24
2021/01/08 01:37:12;;;;;;;8.73;5.13;;;;;;;;;;4896973;29;20041;-25
2021/01/08 01:39:38;;;;;;;8.90;5.38;;;;;;;;;;4896922;29;20054;-24
2021/01/08 01:42:03;;;;;;;7.53;4.68;;;;;;;;;;4896772;29;20041;-24
2021/01/08 01:44:28;;;;;;;6.18;4.28;;;;;;;;;;4896914;29;20088;-25
2021/01/08 01:46:54;;;;;;;7.60;3.80;;;;;;;;;;4896763;29;20040;-25
2021/01/08 01:49:19;;;;;;;7.65;3.78;;;;;;;;;;4880024;29;20036;-25
2021/01/08 01:51:44;;;;;;;9.13;3.95;;;;;;;;;;4897178;29;20039;-24
2021/01/08 01:54:10;;;;;;;10.98;4.18;;;;;;;;;;4896730;29;20052;-24
2021/01/08 01:56:35;;;;;;;5.85;4.05;;;;;;;;;;4880258;29;20072;-23
2021/01/08 01:59:01;;;;;;;6.10;3.80;;;;;;;;;;4879924;29;20031;-24
2021/01/08 02:01:26;;;;;;;7.07;4.00;;;;;;;;;;4879952;29;20033;-24
2021/01/08 02:03:55;;;;;;;6.95;3.55;;;;;;;;;;4896562;29;20047;-24
2021/01/08 02:06:23;;;;;;;6.90;3.72;;;;;;;;;;4896689;29;20425;-24
2021/01/08 02:08:50;;;;;;;6.60;3.78;;;;;;;;;;4896617;29;20093;-24
2021/01/08 02:11:18;;;;;;;7.82;3.85;;;;;;;;;;4896918;29;20059;-24
2021/01/08 02:13:43;;;;;;;9.35;3.60;;;;;;;;;;4883574;29;20437;-24
2021/01/08 02:16:11;;;;;;;4.35;3.25;;;;;;;;;;4899990;29;20037;-24
2021/01/08 02:18:37;;;;;;;5.93;3.50;;;;;;;;;;4883124;29;20036;-24
2021/01/08 02:21:07;;;;;;;7.10;4.10;;;;;;;;;;4899875;29;20051;-25
2021/01/08 02:23:38;;;;;;;5.90;3.30;;;;;;;;;;4899711;29;20041;-25
2021/01/08 02:26:04;;;;;;;7.38;3.78;;;;;;;;;;4900079;29;20033;-25
2021/01/08 02:28:29;;;;;;;7.22;4.10;;;;;;;;;;4899799;29;20373;-24
2021/01/08 02:30:54;;;;;;;5.93;4.05;;;;;;;;;;4899620;29;20128;-24
2021/01/08 02:33:20;;;;;;;6.60;3.65;;;;;;;;;;4899742;29;20029;-24
2021/01/08 02:35:49;;;;;;;6.10;3.30;;;;;;;;;;4899747;29;20033;-25
2021/01/08 02:38:17;;;;;;;5.28;3.63;;;;;;;;;;4899681;29;20551;-24
2021/01/08 02:40:46;;;;;;;5.15;3.30;;;;;;;;;;4899671;29;20030;-24
2021/01/08 02:43:12;;;;;;;4.70;2.88;;;;;;;;;;4899499;29;20044;-25
2021/01/08 02:45:38;;;;;;;4.57;2.80;;;;;;;;;;4899453;29;20029;-24
2021/01/08 02:48:03;;;;;;;4.20;3.17;;;;;;;;;;4882646;29;20044;-25
2021/01/08 02:50:28;;;;;;;7.18;3.08;;;;;;;;;;4899500;29;20036;-24
2021/01/08 02:52:58;;;;;;;5.15;2.92;;;;;;;;;;4899620;29;20388;-24
2021/01/08 02:55:26;;;;;;;6.53;3.70;;;;;;;;;;4899344;29;20123;-24
2021/01/08 02:57:52;;;;;;;5.63;3.05;;;;;;;;;;4899278;29;20052;-26
2021/01/08 03:00:18;;;;;;;7.80;2.42;;;;;;;;;;4899453;29;20025;-24
2021/01/08 03:02:44;;;;;;;7.93;3.22;;;;;;;;;;4899109;29;20127;-24
2021/01/08 03:05:09;;;;;;;5.40;3.05;;;;;;;;;;4882323;29;20028;-24
2021/01/08 03:07:35;;;;;;;4.47;3.22;;;;;;;;;;4899428;29;20543;-24
2021/01/08 03:10:00;;;;;;;5.10;3.30;;;;;;;;;;4897783;29;20029;-24
2021/01/08 03:12:27;;;;;;;10.57;5.88;;;;;;;;;;4897882;29;20036;-24
2021/01/08 03:14:53;;;;;;;6.80;3.83;;;;;;;;;;4881980;29;20025;-24
2021/01/08 03:17:18;;;;;;;4.70;3.17;;;;;;;;;;4899076;29;20384;-24
2021/01/08 03:19:44;;;;;;;7.13;4.07;;;;;;;;;;4898906;29;20415;-23
2021/01/08 03:22:09;;;;;;;4.68;4.03;;;;;;;;;;4898667;29;20033;-23
2021/01/08 03:24:34;;;;;;;7.55;3.78;;;;;;;;;;4898696;29;20037;-23
2021/01/08 03:27:00;;;;;;;6.13;3.88;;;;;;;;;;4898709;29;20460;-23
2021/01/08 03:29:25;;;;;;;4.40;2.80;;;;;;;;;;4897881;29;20064;-24
2021/01/08 03:31:50;;;;;;;5.40;3.63;;;;;;;;;;4898452;29;20029;-23
2021/01/08 03:34:16;;;;;;;4.65;3.45;;;;;;;;;;4898538;29;20039;-23
2021/01/08 03:36:41;;;;;;;6.05;3.00;;;;;;;;;;4898729;29;20025;-24
2021/01/08 03:39:06;;;;;;;7.22;3.72;;;;;;;;;;4898549;29;20096;-23
2021/01/08 03:41:32;;;;;;;5.60;3.58;;;;;;;;;;4898769;29;20060;-24
2021/01/08 03:43:57;;;;;;;5.47;3.38;;;;;;;;;;4898289;29;20079;-23
2021/01/08 03:46:22;;;;;;;4.15;2.80;;;;;;;;;;4898444;29;20036;-23
2021/01/08 03:48:48;;;;;;;5.53;3.28;;;;;;;;;;4898623;29;20040;-24
2021/01/08 03:51:13;;;;;;;6.97;4.03;;;;;;;;;;4898341;29;20515;-24
2021/01/08 03:53:39;;;;;;;4.63;2.80;;;;;;;;;;4898378;29;20467;-24
2021/01/08 03:56:04;;;;;;;8.25;4.22;;;;;;;;;;4898096;29;20526;-24
2021/01/08 03:58:30;;;;;;;4.63;2.70;;;;;;;;;;4898532;29;20033;-24
2021/01/08 04:00:55;;;;;;;7.13;4.20;;;;;;;;;;4898147;29;20032;-25
2021/01/08 04:03:20;;;;;;;5.03;3.35;;;;;;;;;;4898271;29;20036;-24
2021/01/08 04:05:46;;;;;;;5.95;3.35;;;;;;;;;;4898144;29;20472;-23
2021/01/08 04:08:11;;;;;;;6.05;3.38;;;;;;;;;;4865750;29;20123;-24
2021/01/08 04:10:37;;;;;;;4.72;3.17;;;;;;;;;;4897927;29;20067;-24
2021/01/08 04:13:02;;;;;;;6.30;4.10;;;;;;;;;;4898272;29;20399;-24
2021/01/08 04:15:27;;;;;;;5.75;2.80;;;;;;;;;;4897894;29;20498;-24
2021/01/08 04:17:53;;;;;;;5.50;3.53;;;;;;;;;;4897819;29;20399;-24
2021/01/08 04:20:18;;;;;;;5.28;3.45;;;;;;;;;;4897850;29;20116;-24
2021/01/08 04:22:43;;;;;;;5.43;3.40;;;;;;;;;;4897762;29;20036;-24
2021/01/08 04:25:09;;;;;;;7.85;4.22;;;;;;;;;;4881117;29;20490;-25
2021/01/08 04:27:34;;;;;;;5.28;3.08;;;;;;;;;;4896335;29;20616;-23
2021/01/08 04:30:00;;;;;;;4.78;3.45;;;;;;;;;;4880868;29;20039;-23
2021/01/08 04:32:25;;;;;;;5.05;2.90;;;;;;;;;;4897870;29;20115;-24
2021/01/08 04:34:50;;;;;;;4.88;2.85;;;;;;;;;;4897093;29;20503;-24
2021/01/08 04:37:16;;;;;;;4.13;3.13;;;;;;;;;;4897530;29;20487;-24
2021/01/08 04:39:41;;;;;;;4.07;2.55;;;;;;;;;;4897802;29;20361;-24
2021/01/08 04:42:07;;;;;;;5.20;3.00;;;;;;;;;;4897355;29;20036;-24
2021/01/08 04:44:32;;;;;;;3.70;2.88;;;;;;;;;;4897763;29;20048;-24
2021/01/08 04:46:58;;;;;;;3.47;2.75;;;;;;;;;;4880410;29;20119;-23
2021/01/08 04:49:23;;;;;;;5.90;2.92;;;;;;;;;;4897509;29;20028;-24
2021/01/08 04:51:48;;;;;;;3.42;2.67;;;;;;;;;;4897393;29;20428;-24
2021/01/08 04:54:14;;;;;;;4.28;2.38;;;;;;;;;;4897182;29;20057;-24
2021/01/08 04:56:47;;;;;;;4.18;2.92;;;;;;;;;;4897354;29;20049;-23
2021/01/08 04:59:12;;;;;;;5.43;2.70;;;;;;;;;;4897222;29;20031;-24
2021/01/08 05:01:38;;;;;;;3.33;2.40;;;;;;;;;;4897273;29;20428;-23
2021/01/08 05:04:03;;;;;;;4.20;2.22;;;;;;;;;;4897072;29;20037;-24
2021/01/08 05:06:29;;;;;;;3.90;2.30;;;;;;;;;;4897230;29;20029;-25
2021/01/08 05:08:54;;;;;;;4.20;1.90;;;;;;;;;;4897343;29;20044;-24
2021/01/08 05:11:27;;;;;;;3.17;1.95;;;;;;;;;;4880373;29;20469;-25
2021/01/08 05:13:52;;;;;;;4.32;2.83;;;;;;;;;;4897156;29;20276;-24
2021/01/08 05:16:19;;;;;;;4.60;2.60;;;;;;;;;;4897439;29;20036;-24
2021/01/08 05:18:45;;;;;;;4.30;2.70;;;;;;;;;;4897132;29;20179;-25
2021/01/08 05:21:10;;;;;;;5.18;3.15;;;;;;;;;;4897022;29;20119;-24
2021/01/08 05:23:36;;;;;;;4.00;2.60;;;;;;;;;;4880151;29;20051;-24
2021/01/08 05:26:04;;;;;;;4.50;2.75;;;;;;;;;;4897068;29;20117;-24
2021/01/08 05:28:30;;;;;;;3.85;2.50;;;;;;;;;;4880109;29;20057;-23
2021/01/08 05:30:58;;;;;;;3.45;2.67;;;;;;;;;;4897028;29;20530;-24
2021/01/08 05:33:24;;;;;;;4.70;2.33;;;;;;;;;;4896976;29;20072;-24
2021/01/08 05:35:50;;;;;;;4.78;2.35;;;;;;;;;;4897198;29;20064;-24
2021/01/08 05:38:19;;;;;;;4.15;2.45;;;;;;;;;;4880115;29;20040;-24
2021/01/08 05:40:45;;;;;;;3.78;2.13;;;;;;;;;;4880199;29;20490;-24
2021/01/08 05:43:10;;;;;;;2.85;2.05;;;;;;;;;;4896692;29;20052;-23
2021/01/08 05:45:36;;;;;;;3.17;2.58;;;;;;;;;;4897006;29;20044;-24
2021/01/08 05:48:03;;;;;;;3.33;2.00;;;;;;;;;;4899662;29;20020;-24
2021/01/08 05:50:29;;;;;;;3.35;2.28;;;;;;;;;;4900807;29;20020;-25
2021/01/08 05:52:58;;;;;;;3.08;1.95;;;;;;;;;;4883545;29;20543;-24
2021/01/08 05:55:26;;;;;;;4.28;2.70;;;;;;;;;;4900523;29;20025;-24
2021/01/08 05:57:53;;;;;;;5.72;2.80;;;;;;;;;;4900626;29;20032;-24
2021/01/08 06:00:19;;;;;;;4.20;2.60;;;;;;;;;;4900294;29;20134;-24
2021/01/08 06:02:46;;;;;;;3.65;1.90;;;;;;;;;;4900275;29;20068;-24
2021/01/08 06:05:11;;;;;;;5.40;2.80;;;;;;;;;;4900096;29;20482;-24
2021/01/08 06:07:38;;;;;;;3.17;2.13;;;;;;;;;;4900531;29;20036;-23
2021/01/08 06:10:05;;;;;;;3.78;2.13;;;;;;;;;;4900179;29;20106;-23
2021/01/08 06:12:32;;;;;;;2.13;1.55;;;;;;;;;;4900103;29;20032;-22
2021/01/08 06:14:59;;;;;;;4.13;2.72;;;;;;;;;;4900102;29;20043;-24
2021/01/08 06:17:25;;;;;;;3.28;2.40;;;;;;;;;;4900023;29;20507;-23
2021/01/08 06:19:58;;;;;;;3.63;2.42;;;;;;;;;;4900061;29;20028;-23
2021/01/08 06:22:24;;;;;;;3.58;2.30;;;;;;;;;;4900203;29;20047;-23
2021/01/08 06:24:55;;;;;;;5.00;2.88;;;;;;;;;;4899836;29;20527;-24
2021/01/08 06:27:24;;;;;;;4.72;2.55;;;;;;;;;;4899743;29;20122;-23
2021/01/08 06:29:58;;;;;;;3.65;2.67;;;;;;;;;;4899914;29;20558;-23
2021/01/08 06:32:24;;;;;;;3.72;1.95;;;;;;;;;;4900013;29;20096;-24
2021/01/08 06:34:50;;;;;;;3.42;2.05;;;;;;;;;;4899929;29;20031;-23
2021/01/08 06:37:18;;;;;;;3.55;1.98;;;;;;;;;;4899936;29;20290;-23
2021/01/08 06:39:44;;;;;;;8.93;4.10;;;;;;;;;;4882806;29;20702;-22
2021/01/08 06:42:10;;;;;;;3.58;2.97;;;;;;;;;;4899427;29;20051;-23
2021/01/08 06:44:36;;;;;;;3.40;2.38;;;;;;;;;;4899608;29;20036;-24
2021/01/08 06:47:02;;;;;;;5.50;2.78;;;;;;;;;;4882666;29;20029;-24
2021/01/08 06:49:31;;;;;;;5.22;3.15;;;;;;;;;;4899440;29;20437;-23
2021/01/08 06:52:03;;;;;;;8.38;5.93;;;;;;;;;;4899651;29;20028;-24
2021/01/08 06:54:29;;;;;;;7.72;2.75;;;;;;;;;;4867028;29;20037;-24
2021/01/08 06:56:58;;;;;;;5.18;3.08;;;;;;;;;;4899597;29;20040;-23
2021/01/08 06:59:26;;;;;;;4.15;2.50;;;;;;;;;;4899238;29;20034;-23
2021/01/08 07:01:54;;;;;;;4.72;2.50;;;;;;;;;;4899196;29;20480;-24
2021/01/08 07:04:22;;;;;;;3.10;2.35;;;;;;;;;;4899213;29;20036;-24
2021/01/08 07:06:48;;;;;;;2.55;2.25;;;;;;;;;;4899267;29;20044;-24
2021/01/08 07:09:14;;;;;;;5.00;1.83;;;;;;;;;;4899019;29;20028;-24
2021/01/08 07:11:39;;;;;;;3.15;2.17;;;;;;;;;;4899148;29;20380;-24
2021/01/08 07:14:09;;;;;;;2.25;1.70;;;;;;;;;;4899267;29;20120;-24
2021/01/08 07:16:39;;;;;;;3.00;2.13;;;;;;;;;;4899049;29;20467;-24
2021/01/08 07:19:05;;;;;;;3.88;2.28;;;;;;;;;;4898957;29;20092;-27
2021/01/08 07:21:32;;;;;;;3.38;2.22;;;;;;;;;;4899210;29;20028;-23
2021/01/08 07:23:57;;;;;;;4.80;2.40;;;;;;;;;;4898635;29;20040;-22
2021/01/08 07:26:26;;;;;;;5.10;2.55;;;;;;;;;;4898406;29;20467;-22
2021/01/08 07:28:53;;;;;;;5.07;2.60;;;;;;;;;;4898676;29;20059;-22
2021/01/08 07:31:26;;;;;;;3.60;2.33;;;;;;;;;;4881856;29;20364;-22
2021/01/08 07:33:52;;;;;;;8.73;3.53;;;;;;;;;;4897396;29;20487;-23
2021/01/08 07:36:25;;;;;;;5.70;3.00;;;;;;;;;;4898599;29;20039;-23
2021/01/08 07:38:50;;;;;;;7.00;2.35;;;;;;;;;;4898605;29;20044;-22
2021/01/08 07:41:35;;;;;;;10.52;3.63;;;;;;;;;;4881790;29;20037;-24
2021/01/08 07:44:02;;;;;;;4.07;2.55;;;;;;;;;;4898376;29;20041;-24
2021/01/08 07:46:31;;;;;;;4.93;3.35;;;;;;;;;;4898633;29;20029;-23
2021/01/08 07:48:57;;;;;;;4.47;2.53;;;;;;;;;;4898570;29;20039;-23
2021/01/08 07:51:23;;;;;;;5.82;2.90;;;;;;;;;;4898424;29;20032;-23
2021/01/08 07:53:50;;;;;;;2.47;1.95;;;;;;;;;;4898332;29;20072;-22
2021/01/08 07:56:17;;;;;;;3.42;1.83;;;;;;;;;;4898217;29;20040;-22
2021/01/08 07:58:43;;;;;;;3.17;1.77;;;;;;;;;;4898172;29;20041;-22
2021/01/08 08:01:10;;;;;;;4.53;2.50;;;;;;;;;;4881298;29;20036;-22
2021/01/08 08:03:37;;;;;;;4.22;2.47;;;;;;;;;;4898309;29;20060;-21
2021/01/08 08:06:03;;;;;;;4.20;2.33;;;;;;;;;;4881585;29;20380;-23
2021/01/08 08:08:29;;;;;;;3.08;1.90;;;;;;;;;;4897961;29;20388;-24
2021/01/08 08:11:07;;;;;;;3.05;2.40;;;;;;;;;;4897377;29;20021;-23
2021/01/08 08:13:33;;;;;;;4.72;2.50;;;;;;;;;;4898077;29;20028;-22
2021/01/08 08:15:58;;;;;;;4.30;2.75;;;;;;;;;;4897926;29;20365;-22
2021/01/08 08:18:24;;;;;;;4.82;2.58;;;;;;;;;;4897960;29;20107;-22
2021/01/08 08:21:04;;;;;;;7.75;4.15;;;;;;;;;;4898064;29;20067;-24
2021/01/08 08:23:30;;;;;;;4.20;2.65;;;;;;;;;;4897927;29;20041;-22
2021/01/08 08:25:56;;;;;;;3.50;2.03;;;;;;;;;;4897769;29;20037;-22
2021/01/08 08:28:22;;;;;;;2.85;1.95;;;;;;;;;;4897679;29;20479;-22
2021/01/08 08:30:50;;;;;;;3.75;1.92;;;;;;;;;;4880943;29;20091;-22
2021/01/08 08:33:15;;;;;;;3.33;2.10;;;;;;;;;;4896202;29;20037;-22
2021/01/08 08:35:41;;;;;;;2.95;2.05;;;;;;;;;;4897609;29;20031;-22
2021/01/08 08:38:07;;;;;;;3.47;2.00;;;;;;;;;;4897496;29;20028;-22
2021/01/08 08:40:32;;;;;;;3.33;2.13;;;;;;;;;;4897804;29;20114;-22
2021/01/08 08:42:58;;;;;;;2.50;1.80;;;;;;;;;;4897561;29;20050;-22
2021/01/08 08:45:25;;;;;;;2.72;1.70;;;;;;;;;;4897582;29;20046;-22
2021/01/08 08:47:52;;;;;;;3.35;2.28;;;;;;;;;;4865203;29;20036;-23
2021/01/08 08:50:18;;;;;;;3.30;1.70;;;;;;;;;;4897558;29;20039;-23
2021/01/08 08:52:44;;;;;;;2.15;1.42;;;;;;;;;;4897379;29;20040;-23
2021/01/08 08:55:24;;;;;;;2.10;1.65;;;;;;;;;;4897521;29;20025;-24
2021/01/08 08:57:49;;;;;;;3.08;1.80;;;;;;;;;;4897407;29;20028;-23
2021/01/08 09:00:18;;;;;;;1.65;1.50;;;;;;;;;;4897327;29;20028;-23
2021/01/08 09:02:43;;;;;;;2.90;2.42;;;;;;;;;;4880303;29;20072;-23
2021/01/08 09:05:09;;;;;;;2.97;2.35;;;;;;;;;;4897271;29;20465;-23
2021/01/08 09:07:37;;;;;;;2.38;1.35;;;;;;;;;;4897303;29;20043;-23
2021/01/08 09:10:07;;;;;;;1.60;1.50;;;;;;;;;;4897373;29;20041;-24
2021/01/08 09:12:42;;;;;;;6.47;2.78;;;;;;;;;;4541255;29;9999761;-24
2021/01/08 09:15:20;;;;;;;2.88;1.73;;;;;;;;;;4893668;29;20043;-24
2021/01/08 09:17:48;;;;;;;2.60;1.88;;;;;;;;;;4893657;29;20044;-24
2021/01/08 09:20:15;;;;;;;3.25;2.25;;;;;;;;;;4876716;29;20390;-24
2021/01/08 09:22:42;;;;;;;3.00;2.22;;;;;;;;;;4897077;29;20049;-25
2021/01/08 09:25:09;;;;;;;3.50;1.85;;;;;;;;;;4880267;29;20034;-26
2021/01/08 09:27:35;;;;;;;3.70;2.15;;;;;;;;;;4897253;29;20080;-24
2021/01/08 09:30:10;;;;;;;2.78;2.25;;;;;;;;;;4897460;29;20075;-24
2021/01/08 09:32:36;;;;;;;2.40;2.17;;;;;;;;;;4896994;29;20047;-24
2021/01/08 09:35:04;;;;;;;2.72;1.80;;;;;;;;;;4897147;29;20044;-25
2021/01/08 09:37:49;;;;;;;2.60;1.25;;;;;;;;;;4896488;29;20361;-23
2021/01/08 09:40:16;;;;;;;3.63;1.63;;;;;;;;;;4896814;29;20036;-22
2021/01/08 09:42:42;;;;;;;2.00;1.55;;;;;;;;;;4896745;29;20044;-22
2021/01/08 09:45:17;;;;;;;2.58;1.20;;;;;;;;;;4880179;29;20039;-22
2021/01/08 09:47:42;;;;;;;4.00;2.83;;;;;;;;;;4896535;29;20127;-24
2021/01/08 09:50:08;;;;;;;2.35;1.45;;;;;;;;;;4896753;29;20108;-24
2021/01/08 09:52:33;;;;;;;2.53;1.50;;;;;;;;;;4896650;29;20033;-24
2021/01/08 09:54:59;;;;;;;3.42;1.95;;;;;;;;;;4885029;29;20049;-24
2021/01/08 09:57:34;;;;;;;3.63;2.20;;;;;;;;;;4861444;29;20033;-24
2021/01/08 10:00:09;;;;;;;2.50;1.67;;;;;;;;;;4886411;29;20052;-22
2021/01/08 10:02:39;;;;;;;2.55;1.00;;;;;;;;;;4896648;29;20047;-23
2021/01/08 10:05:06;;;;;;;3.50;1.30;;;;;;;;;;4896667;29;20033;-25
2021/01/08 10:07:39;;;;;;;3.00;1.17;;;;;;;;;;4879608;29;20559;-24
2021/01/08 10:10:04;;;;;;;2.13;1.38;;;;;;;;;;4896376;29;20039;-23
2021/01/08 10:12:30;;;;;;;2.50;1.67;;;;;;;;;;4896149;29;20044;-23
2021/01/08 10:14:58;;;;;;;1.85;0.98;;;;;;;;;;4879544;29;20119;-22
2021/01/08 10:17:24;;;;;;;3.45;1.83;;;;;;;;;;4896383;29;20044;-22
2021/01/08 10:19:51;;;;;;;2.85;1.02;;;;;;;;;;4896319;29;20571;-22
2021/01/08 10:22:19;;;;;;;1.40;1.20;;;;;;;;;;4896593;29;20392;-23
2021/01/08 10:24:44;;;;;;;2.83;1.02;;;;;;;;;;4895695;29;20078;-23
2021/01/08 10:27:10;;;;;;;1.70;1.55;;;;;;;;;;4896347;29;20068;-22
2021/01/08 10:29:36;;;;;;;2.55;1.38;;;;;;;;;;4876249;29;20057;-23
2021/01/08 10:32:06;;;;;;;1.75;1.33;;;;;;;;;;4877362;29;20034;-22
2021/01/08 10:34:38;;;;;;;2.25;1.00;;;;;;;;;;4877745;29;20021;-23
2021/01/08 10:37:04;;;;;;;2.20;1.40;;;;;;;;;;4877374;29;20041;-22
2021/01/08 10:39:30;;;;;;;2.80;1.60;;;;;;;;;;4877982;29;20045;-23
2021/01/08 10:41:56;;;;;;;2.08;1.60;;;;;;;;;;4877624;29;20358;-22
2021/01/08 10:44:21;;;;;;;2.45;1.58;;;;;;;;;;4877766;29;20041;-23
2021/01/08 10:46:47;;;;;;;3.47;1.13;;;;;;;;;;4877973;29;20065;-23
2021/01/08 10:49:12;;;;;;;2.92;1.75;;;;;;;;;;4877358;29;20364;-23
2021/01/08 10:51:38;;;;;;;1.30;0.98;;;;;;;;;;4877980;29;20044;-23
2021/01/08 10:54:03;;;;;;;1.70;1.55;;;;;;;;;;4877236;29;20464;-23
2021/01/08 10:56:29;;;;;;;2.58;1.42;;;;;;;;;;4877231;29;20033;-23
2021/01/08 10:58:54;;;;;;;2.05;1.33;;;;;;;;;;4877342;29;20109;-22
2021/01/08 11:01:20;;;;;;;1.95;1.23;;;;;;;;;;4877171;29;20041;-23
2021/01/08 11:03:45;;;;;;;2.15;1.40;;;;;;;;;;4877091;29;20049;-23
2021/01/08 11:06:18;;;;;;;1.48;1.13;;;;;;;;;;4877197;29;20036;-24
2021/01/08 11:08:44;;;;;;;1.08;0.95;;;;;;;;;;4877002;29;20032;-23
2021/01/08 11:11:09;;;;;;;1.10;1.00;;;;;;;;;;4876749;29;20124;-23
2021/01/08 11:13:35;;;;;;;3.03;1.67;;;;;;;;;;4876820;29;20045;-24
2021/01/08 11:16:00;;;;;;;1.35;0.82;;;;;;;;;;4876729;29;20540;-23
2021/01/08 11:18:25;;;;;;;1.85;1.20;;;;;;;;;;4877203;29;20041;-23
2021/01/08 11:20:51;;;;;;;1.65;1.42;;;;;;;;;;4877286;29;20076;-23
2021/01/08 11:23:17;;;;;;;1.88;1.50;;;;;;;;;;4877019;29;20781;-23
2021/01/08 11:25:42;;;;;;;1.88;1.60;;;;;;;;;;4876434;29;20116;-23
2021/01/08 11:28:08;;;;;;;1.52;1.08;;;;;;;;;;4883742;29;20068;-22
2021/01/08 11:30:33;;;;;;;0.60;0.60;;;;;;;;;;4895789;29;20040;-23
2021/01/08 11:32:59;;;;;;;1.25;1.05;;;;;;;;;;4895451;29;20044;-23
2021/01/08 11:35:25;;;;;;;1.92;0.90;;;;;;;;;;4895741;29;20029;-23
2021/01/08 11:37:51;;;;;;;1.85;1.00;;;;;;;;;;4894957;29;20067;-23
2021/01/08 11:40:16;;;;;;;3.05;0.82;;;;;;;;;;4878301;29;20044;-22
2021/01/08 11:42:42;;;;;;;2.78;0.80;;;;;;;;;;4895329;29;20046;-23
2021/01/08 11:45:07;;;;;;;1.02;0.77;;;;;;;;;;4895085;29;20056;-22
2021/01/08 11:47:36;;;;;;;3.10;1.38;;;;;;;;;;4894933;29;20029;-23
2021/01/08 11:50:02;;;;;;;2.25;1.20;;;;;;;;;;4861911;29;20043;-23
2021/01/08 11:52:30;;;;;;;1.52;1.05;;;;;;;;;;4895041;29;20428;-23
2021/01/08 11:54:56;;;;;;;1.17;0.68;;;;;;;;;;4894501;29;20111;-24
2021/01/08 11:57:21;;;;;;;1.75;1.08;;;;;;;;;;4877859;29;20171;-24
2021/01/08 11:59:47;;;;;;;1.92;1.00;;;;;;;;;;4877672;29;20028;-24
2021/01/08 12:02:12;;;;;;;1.83;1.13;;;;;;;;;;4877314;29;20037;-24
2021/01/08 12:04:38;;;;;;;1.00;0.90;;;;;;;;;;4895038;29;20084;-23
2021/01/08 12:07:04;;;;;;;1.65;0.85;;;;;;;;;;4894915;29;20662;-23
2021/01/08 12:09:30;;;;;;;1.77;1.20;;;;;;;;;;4895290;29;20399;-24
2021/01/08 12:11:59;;;;;;;1.52;0.90;;;;;;;;;;4894600;29;20028;-23
2021/01/08 12:14:25;;;;;;;1.13;0.88;;;;;;;;;;4894344;29;20036;-25
2021/01/08 12:16:50;;;;;;;1.90;0.80;;;;;;;;;;4894899;29;20412;-24
2021/01/08 12:19:17;;;;;;;1.05;0.70;;;;;;;;;;4894785;29;20051;-24
2021/01/08 12:21:49;;;;;;;1.20;0.60;;;;;;;;;;4894561;29;20036;-22
2021/01/08 12:24:14;;;;;;;2.20;0.95;;;;;;;;;;4894301;29;20055;-23
2021/01/08 12:26:40;;;;;;;0.90;0.55;;;;;;;;;;4894604;29;20029;-23
2021/01/08 12:29:06;;;;;;;1.70;0.80;;;;;;;;;;4894468;29;20060;-22
2021/01/08 12:31:31;;;;;;;0.30;0.30;;;;;;;;;;4895034;29;20395;-23
2021/01/08 12:33:56;;;;;;;1.85;1.10;;;;;;;;;;4894477;29;20309;-23
2021/01/08 12:36:22;;;;;;;1.80;0.93;;;;;;;;;;4893649;29;20051;-23
2021/01/08 12:38:48;;;;;;;1.67;1.02;;;;;;;;;;4877327;29;20043;-24
2021/01/08 12:41:13;;;;;;;1.63;1.50;;;;;;;;;;4894249;29;20032;-25
2021/01/08 12:43:39;;;;;;;1.30;0.90;;;;;;;;;;4894168;29;20048;-23
2021/01/08 12:46:04;;;;;;;0.70;0.60;;;;;;;;;;4894007;29;20036;-23
2021/01/08 12:48:30;;;;;;;2.17;1.02;;;;;;;;;;4876630;29;20101;-23
2021/01/08 12:50:55;;;;;;;2.30;0.95;;;;;;;;;;4894108;29;20040;-24
2021/01/08 12:53:21;;;;;;;1.33;0.73;;;;;;;;;;4893841;29;20040;-23
2021/01/08 12:55:46;;;;;;;1.77;0.80;;;;;;;;;;4892437;29;20040;-23
2021/01/08 12:58:12;;;;;;;1.55;1.00;;;;;;;;;;4894387;29;20047;-24
2021/01/08 13:00:37;;;;;;;1.90;1.08;;;;;;;;;;4893461;29;20051;-23
2021/01/08 13:03:02;;;;;;;1.58;0.95;;;;;;;;;;4893720;29;20040;-23
2021/01/08 13:05:28;;;;;;;1.80;0.80;;;;;;;;;;4893596;29;20035;-23
2021/01/08 13:07:53;;;;;;;2.08;1.20;;;;;;;;;;4876617;29;20037;-23
2021/01/08 13:10:19;;;;;;;1.27;1.00;;;;;;;;;;4893880;29;20021;-24
2021/01/08 13:12:44;;;;;;;0.65;0.50;;;;;;;;;;4876662;29;20039;-23
2021/01/08 13:15:09;;;;;;;0.93;0.60;;;;;;;;;;4893364;29;20040;-24
2021/01/08 13:17:36;;;;;;;1.63;0.68;;;;;;;;;;4876295;29;20048;-27
2021/01/08 13:20:02;;;;;;;2.13;1.15;;;;;;;;;;4893577;29;20037;-23
2021/01/08 13:22:27;;;;;;;1.33;1.17;;;;;;;;;;4893970;29;20055;-22
2021/01/08 13:24:53;;;;;;;2.28;0.85;;;;;;;;;;4876510;29;20043;-23
2021/01/08 13:27:18;;;;;;;0.95;0.80;;;;;;;;;;4893416;29;20051;-22
2021/01/08 13:29:44;;;;;;;1.88;0.93;;;;;;;;;;4892533;29;20743;-25
2021/01/08 13:32:09;;;;;;;1.13;0.60;;;;;;;;;;4893490;29;20039;-24
2021/01/08 13:34:35;;;;;;;0.70;0.60;;;;;;;;;;4876946;29;20056;-23
2021/01/08 13:37:01;;;;;;;1.90;0.90;;;;;;;;;;4893357;29;20033;-22
2021/01/08 13:39:27;;;;;;;0.68;0.65;;;;;;;;;;4877016;29;20127;-23
2021/01/08 13:42:03;;;;;;;1.10;1.00;;;;;;;;;;4893983;29;20116;-24
2021/01/08 13:44:29;;;;;;;0.90;0.60;;;;;;;;;;4893317;29;20504;-23
2021/01/08 13:46:54;;;;;;;1.55;0.60;;;;;;;;;;4893589;29;20060;-22
2021/01/08 13:49:20;;;;;;;1.33;0.60;;;;;;;;;;4893446;29;20044;-23
2021/01/08 13:51:45;;;;;;;0.80;0.73;;;;;;;;;;4893940;29;20093;-24
2021/01/08 13:54:10;;;;;;;1.67;1.00;;;;;;;;;;4893353;29;20051;-24
2021/01/08 13:56:36;;;;;;;1.77;0.98;;;;;;;;;;4893527;29;20481;-24
2021/01/08 13:59:01;;;;;;;0.70;0.70;;;;;;;;;;4893125;29;20092;-23
2021/01/08 14:01:27;;;;;;;2.33;1.40;;;;;;;;;;4893096;29;20028;-24
2021/01/08 14:03:52;;;;;;;3.42;1.95;;;;;;;;;;4893209;29;20085;-22
2021/01/08 14:06:21;;;;;;;1.55;0.93;;;;;;;;;;4875880;29;20381;-24
2021/01/08 14:08:48;;;;;;;1.65;0.68;;;;;;;;;;4895304;29;20436;-22
2021/01/08 14:11:33;;;;;;;1.20;0.70;;;;;;;;;;4896379;29;20084;-23
2021/01/08 14:14:00;;;;;;;1.05;0.88;;;;;;;;;;4895917;29;20036;-22
2021/01/08 14:16:26;;;;;;;0.90;0.70;;;;;;;;;;4895647;29;20025;-22
2021/01/08 14:18:52;;;;;;;5.50;1.17;;;;;;;;;;4896702;29;20097;-24
2021/01/08 14:21:23;;;;;;;1.65;1.05;;;;;;;;;;4896279;29;20707;-24
2021/01/08 14:23:49;;;;;;;2.08;0.80;;;;;;;;;;4896298;29;20044;-23
2021/01/08 14:26:21;;;;;;;2.05;1.27;;;;;;;;;;4894970;29;20035;-23
2021/01/08 14:28:47;;;;;;;2.83;1.40;;;;;;;;;;4896342;29;20060;-24
2021/01/08 14:31:13;;;;;;;18.83;6.60;;;;;;;;;;4896113;29;20271;-24
2021/01/08 14:33:38;;;;;;;4.93;2.42;;;;;;;;;;4896275;29;20048;-23
2021/01/08 14:36:04;;;;;;;3.05;1.45;;;;;;;;;;4895865;29;20020;-23
2021/01/08 14:38:29;;;;;;;2.10;1.17;;;;;;;;;;4879047;29;20032;-22
2021/01/08 14:40:55;;;;;;;1.23;0.90;;;;;;;;;;4896107;29;20079;-23